sensor_id;sensor_type;location;lat;lon;timestamp;temperature;humidity
10678;DHT22;5387;48.722;9.110;2023-02-26T00:02:28;-0.70;99.90
10678;DHT22;5387;48.722;9.110;2023-02-26T00:04:55;-0.60;99.90
10678;DHT22;5387;48.722;9.110;2023-02-26T00:07:21;-0.60;99.90
10678;DHT22;5387;48.722;9.110;2023-02-26T00:09:51;-0.60;99.90
10678;DHT22;5387;48.722;9.110;2023-02-26T00:12:18;-0.60;99.90
10678;DHT22;5387;48.722;9.110;2023-02-26T00:14:46;-0.70;99.90
10678;DHT22;5387;48.722;9.110;2023-02-26T00:17:25;-0.70;99.90
10678;DHT22;5387;48.722;9.110;2023-02-26T00:19:55;-0.70;99.90
10678;DHT22;5387;48.722;9.110;2023-02-26T00:22:22;-0.70;99.90
10678;DHT22;5387;48.722;9.110;2023-02-26T00:24:51;-0.80;99.90
10678;DHT22;5387;48.722;9.110;2023-02-26T00:27:18;-0.90;99.90
10678;DHT22;5387;48.722;9.110;2023-02-26T00:29:45;-0.90;99.90
10678;DHT22;5387;48.722;9.110;2023-02-26T00:32:12;-0.90;99.90
10678;DHT22;5387;48.722;9.110;2023-02-26T00:34:39;-0.90;99.90
10678;DHT22;5387;48.722;9.110;2023-02-26T00:37:16;-1.00;99.90
10678;DHT22;5387;48.722;9.110;2023-02-26T00:39:55;-1.00;99.90
10678;DHT22;5387;48.722;9.110;2023-02-26T00:42:25;-1.00;99.90
10678;DHT22;5387;48.722;9.110;2023-02-26T00:44:53;-1.00;99.90
10678;DHT22;5387;48.722;9.110;2023-02-26T00:47:28;-1.20;99.90
10678;DHT22;5387;48.722;9.110;2023-02-26T00:50:05;-1.10;99.90
10678;DHT22;5387;48.722;9.110;2023-02-26T00:52:39;-1.40;99.90
10678;DHT22;5387;48.722;9.110;2023-02-26T00:55:09;-1.20;99.90
10678;DHT22;5387;48.722;9.110;2023-02-26T00:57:36;-1.20;99.90
10678;DHT22;5387;48.722;9.110;2023-02-26T01:00:05;-1.20;99.90
10678;DHT22;5387;48.722;9.110;2023-02-26T01:02:33;-1.30;99.90
10678;DHT22;5387;48.722;9.110;2023-02-26T01:05:00;-1.40;99.90
10678;DHT22;5387;48.722;9.110;2023-02-26T01:07:30;-1.40;99.90
10678;DHT22;5387;48.722;9.110;2023-02-26T01:10:01;-1.30;99.90
10678;DHT22;5387;48.722;9.110;2023-02-26T01:12:29;-1.40;99.90
10678;DHT22;5387;48.722;9.110;2023-02-26T01:14:57;-1.40;99.90
10678;DHT22;5387;48.722;9.110;2023-02-26T01:17:27;-1.40;99.90
10678;DHT22;5387;48.722;9.110;2023-02-26T01:19:59;-1.40;99.90
10678;DHT22;5387;48.722;9.110;2023-02-26T01:22:32;-1.30;99.90
10678;DHT22;5387;48.722;9.110;2023-02-26T01:25:03;-1.30;99.90
10678;DHT22;5387;48.722;9.110;2023-02-26T01:27:32;-1.40;99.90
10678;DHT22;5387;48.722;9.110;2023-02-26T01:30:00;-1.40;99.90
10678;DHT22;5387;48.722;9.110;2023-02-26T01:32:33;-1.40;99.90
10678;DHT22;5387;48.722;9.110;2023-02-26T01:35:06;-1.40;99.90
10678;DHT22;5387;48.722;9.110;2023-02-26T01:37:41;-1.40;99.90
10678;DHT22;5387;48.722;9.110;2023-02-26T01:40:30;-1.40;99.90
10678;DHT22;5387;48.722;9.110;2023-02-26T01:43:06;-1.50;99.90
10678;DHT22;5387;48.722;9.110;2023-02-26T01:45:38;-1.60;99.90
10678;DHT22;5387;48.722;9.110;2023-02-26T01:48:17;-1.60;99.90
10678;DHT22;5387;48.722;9.110;2023-02-26T01:50:47;-1.70;99.90
10678;DHT22;5387;48.722;9.110;2023-02-26T01:53:20;-1.70;99.90
10678;DHT22;5387;48.722;9.110;2023-02-26T01:55:51;-1.70;99.90
10678;DHT22;5387;48.722;9.110;2023-02-26T01:58:21;-1.80;99.90
10678;DHT22;5387;48.722;9.110;2023-02-26T02:00:50;-1.70;99.90
10678;DHT22;5387;48.722;9.110;2023-02-26T02:03:18;-1.80;99.90
10678;DHT22;5387;48.722;9.110;2023-02-26T02:05:48;-1.80;99.90
10678;DHT22;5387;48.722;9.110;2023-02-26T02:08:16;-1.80;99.90
10678;DHT22;5387;48.722;9.110;2023-02-26T02:10:46;-1.80;99.90
10678;DHT22;5387;48.722;9.110;2023-02-26T02:13:24;-1.80;99.90
10678;DHT22;5387;48.722;9.110;2023-02-26T02:16:06;-1.80;99.90
10678;DHT22;5387;48.722;9.110;2023-02-26T02:18:42;-2.00;99.90
10678;DHT22;5387;48.722;9.110;2023-02-26T02:21:45;-1.90;99.90
10678;DHT22;5387;48.722;9.110;2023-02-26T02:24:20;-1.90;99.90
10678;DHT22;5387;48.722;9.110;2023-02-26T02:27:03;-1.90;99.90
10678;DHT22;5387;48.722;9.110;2023-02-26T02:32:39;-1.90;99.90
10678;DHT22;5387;48.722;9.110;2023-02-26T02:35:13;-1.90;99.90
10678;DHT22;5387;48.722;9.110;2023-02-26T02:37:45;-1.90;99.90
10678;DHT22;5387;48.722;9.110;2023-02-26T02:40:17;-1.90;99.90
10678;DHT22;5387;48.722;9.110;2023-02-26T02:42:47;-2.00;99.90
10678;DHT22;5387;48.722;9.110;2023-02-26T02:45:19;-2.00;99.90
10678;DHT22;5387;48.722;9.110;2023-02-26T02:47:53;-2.00;99.90
10678;DHT22;5387;48.722;9.110;2023-02-26T02:50:25;-2.10;99.90
10678;DHT22;5387;48.722;9.110;2023-02-26T02:52:57;-2.10;99.90
10678;DHT22;5387;48.722;9.110;2023-02-26T02:55:29;-2.00;99.90
10678;DHT22;5387;48.722;9.110;2023-02-26T02:58:00;-2.00;99.90
10678;DHT22;5387;48.722;9.110;2023-02-26T03:00:32;-2.10;99.90
10678;DHT22;5387;48.722;9.110;2023-02-26T03:03:05;-2.10;99.90
10678;DHT22;5387;48.722;9.110;2023-02-26T03:05:34;-2.20;99.90
10678;DHT22;5387;48.722;9.110;2023-02-26T03:08:05;-2.10;99.90
10678;DHT22;5387;48.722;9.110;2023-02-26T03:10:33;-2.20;99.90
10678;DHT22;5387;48.722;9.110;2023-02-26T03:13:00;-2.30;99.90
10678;DHT22;5387;48.722;9.110;2023-02-26T03:15:34;-2.30;99.90
10678;DHT22;5387;48.722;9.110;2023-02-26T03:18:10;-2.30;99.90
10678;DHT22;5387;48.722;9.110;2023-02-26T03:20:41;-2.30;99.90
10678;DHT22;5387;48.722;9.110;2023-02-26T03:23:17;-2.30;99.90
10678;DHT22;5387;48.722;9.110;2023-02-26T03:25:49;-2.30;99.90
10678;DHT22;5387;48.722;9.110;2023-02-26T03:28:21;-2.30;99.90
10678;DHT22;5387;48.722;9.110;2023-02-26T03:30:54;-2.40;99.90
10678;DHT22;5387;48.722;9.110;2023-02-26T03:33:27;-2.30;99.90
10678;DHT22;5387;48.722;9.110;2023-02-26T03:36:05;-2.30;99.90
10678;DHT22;5387;48.722;9.110;2023-02-26T03:38:39;-2.30;99.90
10678;DHT22;5387;48.722;9.110;2023-02-26T03:41:09;-2.30;99.90
10678;DHT22;5387;48.722;9.110;2023-02-26T03:43:43;-2.30;99.90
10678;DHT22;5387;48.722;9.110;2023-02-26T03:46:14;-2.20;99.90
10678;DHT22;5387;48.722;9.110;2023-02-26T03:48:43;-2.20;99.90
10678;DHT22;5387;48.722;9.110;2023-02-26T03:51:12;-2.30;99.90
10678;DHT22;5387;48.722;9.110;2023-02-26T03:53:46;-2.30;99.90
10678;DHT22;5387;48.722;9.110;2023-02-26T03:56:17;-2.40;99.90
10678;DHT22;5387;48.722;9.110;2023-02-26T03:58:45;-2.40;99.90
10678;DHT22;5387;48.722;9.110;2023-02-26T04:01:15;-2.30;99.90
10678;DHT22;5387;48.722;9.110;2023-02-26T04:03:49;-2.30;99.90
10678;DHT22;5387;48.722;9.110;2023-02-26T04:06:18;-2.30;99.90
10678;DHT22;5387;48.722;9.110;2023-02-26T04:08:45;-2.40;99.90
10678;DHT22;5387;48.722;9.110;2023-02-26T04:11:16;-2.40;99.90
10678;DHT22;5387;48.722;9.110;2023-02-26T04:13:44;-2.40;99.90
10678;DHT22;5387;48.722;9.110;2023-02-26T04:16:11;-2.40;99.90
10678;DHT22;5387;48.722;9.110;2023-02-26T04:18:38;-2.40;99.90
10678;DHT22;5387;48.722;9.110;2023-02-26T04:21:10;-2.50;99.90
10678;DHT22;5387;48.722;9.110;2023-02-26T04:23:37;-2.50;99.90
10678;DHT22;5387;48.722;9.110;2023-02-26T04:26:04;-2.60;99.90
10678;DHT22;5387;48.722;9.110;2023-02-26T04:28:30;-2.60;99.90
10678;DHT22;5387;48.722;9.110;2023-02-26T04:30:58;-2.70;99.90
10678;DHT22;5387;48.722;9.110;2023-02-26T04:33:25;-2.60;99.90
10678;DHT22;5387;48.722;9.110;2023-02-26T04:35:52;-2.60;99.90
10678;DHT22;5387;48.722;9.110;2023-02-26T04:38:20;-2.60;99.90
10678;DHT22;5387;48.722;9.110;2023-02-26T04:40:48;-2.70;99.90
10678;DHT22;5387;48.722;9.110;2023-02-26T04:43:15;-2.70;99.90
10678;DHT22;5387;48.722;9.110;2023-02-26T04:45:44;-2.70;99.90
10678;DHT22;5387;48.722;9.110;2023-02-26T04:48:11;-2.70;99.90
10678;DHT22;5387;48.722;9.110;2023-02-26T04:50:38;-2.80;99.90
10678;DHT22;5387;48.722;9.110;2023-02-26T04:53:04;-2.70;99.90
10678;DHT22;5387;48.722;9.110;2023-02-26T04:55:33;-2.80;99.90
10678;DHT22;5387;48.722;9.110;2023-02-26T04:58:00;-2.70;99.90
10678;DHT22;5387;48.722;9.110;2023-02-26T05:00:27;-2.70;99.90
10678;DHT22;5387;48.722;9.110;2023-02-26T05:02:54;-2.80;99.90
10678;DHT22;5387;48.722;9.110;2023-02-26T05:05:21;-2.80;99.90
10678;DHT22;5387;48.722;9.110;2023-02-26T05:07:47;-2.80;99.90
10678;DHT22;5387;48.722;9.110;2023-02-26T05:10:15;-2.70;99.90
10678;DHT22;5387;48.722;9.110;2023-02-26T05:12:43;-2.70;99.90
10678;DHT22;5387;48.722;9.110;2023-02-26T05:15:10;-2.60;99.90
10678;DHT22;5387;48.722;9.110;2023-02-26T05:17:37;-2.60;99.90
10678;DHT22;5387;48.722;9.110;2023-02-26T05:20:05;-2.60;99.90
10678;DHT22;5387;48.722;9.110;2023-02-26T05:22:34;-2.70;99.90
10678;DHT22;5387;48.722;9.110;2023-02-26T05:25:01;-2.80;99.90
10678;DHT22;5387;48.722;9.110;2023-02-26T05:27:29;-2.90;99.90
10678;DHT22;5387;48.722;9.110;2023-02-26T05:29:57;-2.90;99.90
10678;DHT22;5387;48.722;9.110;2023-02-26T05:32:24;-2.90;99.90
10678;DHT22;5387;48.722;9.110;2023-02-26T05:34:51;-2.90;99.90
10678;DHT22;5387;48.722;9.110;2023-02-26T05:37:17;-2.80;99.90
10678;DHT22;5387;48.722;9.110;2023-02-26T05:39:44;-2.90;99.90
10678;DHT22;5387;48.722;9.110;2023-02-26T05:42:11;-2.80;99.90
10678;DHT22;5387;48.722;9.110;2023-02-26T05:44:38;-2.80;99.90
10678;DHT22;5387;48.722;9.110;2023-02-26T05:47:06;-2.80;99.90
10678;DHT22;5387;48.722;9.110;2023-02-26T05:49:33;-2.90;99.90
10678;DHT22;5387;48.722;9.110;2023-02-26T05:52:00;-2.90;99.90
10678;DHT22;5387;48.722;9.110;2023-02-26T05:54:27;-3.00;99.90
10678;DHT22;5387;48.722;9.110;2023-02-26T05:56:54;-3.00;99.90
10678;DHT22;5387;48.722;9.110;2023-02-26T05:59:21;-3.10;99.90
10678;DHT22;5387;48.722;9.110;2023-02-26T06:01:48;-3.10;99.90
10678;DHT22;5387;48.722;9.110;2023-02-26T06:04:16;-3.10;99.90
10678;DHT22;5387;48.722;9.110;2023-02-26T06:06:43;-3.10;99.90
10678;DHT22;5387;48.722;9.110;2023-02-26T06:09:10;-3.00;99.90
10678;DHT22;5387;48.722;9.110;2023-02-26T06:11:36;-3.00;99.90
10678;DHT22;5387;48.722;9.110;2023-02-26T06:14:04;-3.10;99.90
10678;DHT22;5387;48.722;9.110;2023-02-26T06:16:31;-3.10;99.90
10678;DHT22;5387;48.722;9.110;2023-02-26T06:19:00;-3.10;99.90
10678;DHT22;5387;48.722;9.110;2023-02-26T06:21:28;-3.00;99.90
10678;DHT22;5387;48.722;9.110;2023-02-26T06:23:55;-2.90;99.90
10678;DHT22;5387;48.722;9.110;2023-02-26T06:26:22;-2.90;99.90
10678;DHT22;5387;48.722;9.110;2023-02-26T06:28:49;-2.90;99.90
10678;DHT22;5387;48.722;9.110;2023-02-26T06:31:15;-2.90;99.90
10678;DHT22;5387;48.722;9.110;2023-02-26T06:33:42;-3.00;99.90
10678;DHT22;5387;48.722;9.110;2023-02-26T06:36:09;-3.00;99.90
10678;DHT22;5387;48.722;9.110;2023-02-26T06:38:37;-3.10;99.90
10678;DHT22;5387;48.722;9.110;2023-02-26T06:41:04;-3.20;99.90
10678;DHT22;5387;48.722;9.110;2023-02-26T06:43:31;-3.20;99.90
10678;DHT22;5387;48.722;9.110;2023-02-26T06:45:58;-3.20;99.90
10678;DHT22;5387;48.722;9.110;2023-02-26T06:48:25;-3.10;99.90
10678;DHT22;5387;48.722;9.110;2023-02-26T06:50:52;-3.00;99.90
10678;DHT22;5387;48.722;9.110;2023-02-26T06:53:19;-2.90;99.90
10678;DHT22;5387;48.722;9.110;2023-02-26T06:55:50;-2.80;99.90
10678;DHT22;5387;48.722;9.110;2023-02-26T06:58:17;-2.90;99.90
10678;DHT22;5387;48.722;9.110;2023-02-26T07:00:44;-2.80;99.90
10678;DHT22;5387;48.722;9.110;2023-02-26T07:03:14;-2.80;99.90
10678;DHT22;5387;48.722;9.110;2023-02-26T07:05:41;-2.80;99.90
10678;DHT22;5387;48.722;9.110;2023-02-26T07:08:08;-2.80;99.90
10678;DHT22;5387;48.722;9.110;2023-02-26T07:10:35;-2.80;99.90
10678;DHT22;5387;48.722;9.110;2023-02-26T07:13:03;-2.80;99.90
10678;DHT22;5387;48.722;9.110;2023-02-26T07:15:31;-2.60;99.90
10678;DHT22;5387;48.722;9.110;2023-02-26T07:17:57;-2.70;99.90
10678;DHT22;5387;48.722;9.110;2023-02-26T07:20:26;-2.60;99.90
10678;DHT22;5387;48.722;9.110;2023-02-26T07:22:54;-2.60;99.90
10678;DHT22;5387;48.722;9.110;2023-02-26T07:25:22;-2.60;99.90
10678;DHT22;5387;48.722;9.110;2023-02-26T07:27:49;-2.50;99.90
10678;DHT22;5387;48.722;9.110;2023-02-26T07:30:17;-2.50;99.90
10678;DHT22;5387;48.722;9.110;2023-02-26T07:32:44;-2.40;99.90
10678;DHT22;5387;48.722;9.110;2023-02-26T07:35:11;-2.30;99.90
10678;DHT22;5387;48.722;9.110;2023-02-26T07:37:38;-2.30;99.90
10678;DHT22;5387;48.722;9.110;2023-02-26T07:40:06;-2.00;99.90
10678;DHT22;5387;48.722;9.110;2023-02-26T07:42:33;-1.80;99.90
10678;DHT22;5387;48.722;9.110;2023-02-26T07:45:00;-1.60;99.90
10678;DHT22;5387;48.722;9.110;2023-02-26T07:47:28;-1.50;99.90
10678;DHT22;5387;48.722;9.110;2023-02-26T07:49:55;-1.80;99.90
10678;DHT22;5387;48.722;9.110;2023-02-26T07:52:22;-1.90;99.90
10678;DHT22;5387;48.722;9.110;2023-02-26T07:54:49;-1.80;99.90
10678;DHT22;5387;48.722;9.110;2023-02-26T07:57:16;-1.60;99.90
10678;DHT22;5387;48.722;9.110;2023-02-26T07:59:43;-1.70;99.90
10678;DHT22;5387;48.722;9.110;2023-02-26T08:02:10;-1.60;99.90
10678;DHT22;5387;48.722;9.110;2023-02-26T08:04:39;-1.80;99.90
10678;DHT22;5387;48.722;9.110;2023-02-26T08:07:07;-2.00;99.90
10678;DHT22;5387;48.722;9.110;2023-02-26T08:09:33;-1.80;99.90
10678;DHT22;5387;48.722;9.110;2023-02-26T08:12:00;-1.90;99.90
10678;DHT22;5387;48.722;9.110;2023-02-26T08:14:28;-2.00;99.90
10678;DHT22;5387;48.722;9.110;2023-02-26T08:16:54;-2.00;99.90
10678;DHT22;5387;48.722;9.110;2023-02-26T08:19:21;-2.10;99.90
10678;DHT22;5387;48.722;9.110;2023-02-26T08:21:49;-2.10;99.90
10678;DHT22;5387;48.722;9.110;2023-02-26T08:24:16;-2.10;99.90
10678;DHT22;5387;48.722;9.110;2023-02-26T08:26:43;-1.90;99.90
10678;DHT22;5387;48.722;9.110;2023-02-26T08:29:10;-1.80;99.90
10678;DHT22;5387;48.722;9.110;2023-02-26T08:31:37;-1.40;99.90
10678;DHT22;5387;48.722;9.110;2023-02-26T08:34:04;-1.60;99.90
10678;DHT22;5387;48.722;9.110;2023-02-26T08:36:31;-1.60;99.90
10678;DHT22;5387;48.722;9.110;2023-02-26T08:38:59;-1.50;99.90
10678;DHT22;5387;48.722;9.110;2023-02-26T08:41:26;-1.30;99.90
10678;DHT22;5387;48.722;9.110;2023-02-26T08:43:55;-1.30;99.90
10678;DHT22;5387;48.722;9.110;2023-02-26T08:46:21;-1.50;99.90
10678;DHT22;5387;48.722;9.110;2023-02-26T08:48:48;-1.60;99.90
10678;DHT22;5387;48.722;9.110;2023-02-26T08:51:15;-1.40;99.90
10678;DHT22;5387;48.722;9.110;2023-02-26T08:53:43;-1.30;99.90
10678;DHT22;5387;48.722;9.110;2023-02-26T08:56:13;-1.40;99.90
10678;DHT22;5387;48.722;9.110;2023-02-26T08:58:39;-1.70;99.90
10678;DHT22;5387;48.722;9.110;2023-02-26T09:01:06;-1.80;99.90
10678;DHT22;5387;48.722;9.110;2023-02-26T09:03:33;-2.00;99.90
10678;DHT22;5387;48.722;9.110;2023-02-26T09:06:00;-2.00;99.90
10678;DHT22;5387;48.722;9.110;2023-02-26T09:08:29;-1.90;99.90
10678;DHT22;5387;48.722;9.110;2023-02-26T09:10:58;-2.00;99.90
10678;DHT22;5387;48.722;9.110;2023-02-26T09:13:27;-1.90;99.90
10678;DHT22;5387;48.722;9.110;2023-02-26T09:15:54;-1.80;99.90
10678;DHT22;5387;48.722;9.110;2023-02-26T09:18:21;-1.80;99.90
10678;DHT22;5387;48.722;9.110;2023-02-26T09:20:48;-1.70;99.90
10678;DHT22;5387;48.722;9.110;2023-02-26T09:23:15;-1.70;99.90
10678;DHT22;5387;48.722;9.110;2023-02-26T09:25:41;-1.70;99.90
10678;DHT22;5387;48.722;9.110;2023-02-26T09:28:08;-1.80;99.90
10678;DHT22;5387;48.722;9.110;2023-02-26T09:30:36;-1.60;99.90
10678;DHT22;5387;48.722;9.110;2023-02-26T09:33:03;-1.50;99.90
10678;DHT22;5387;48.722;9.110;2023-02-26T09:35:30;-1.50;99.90
10678;DHT22;5387;48.722;9.110;2023-02-26T09:37:57;-1.50;99.90
10678;DHT22;5387;48.722;9.110;2023-02-26T09:40:35;-1.50;99.90
10678;DHT22;5387;48.722;9.110;2023-02-26T09:43:27;-1.50;99.90
10678;DHT22;5387;48.722;9.110;2023-02-26T09:46:03;-1.50;99.90
10678;DHT22;5387;48.722;9.110;2023-02-26T09:48:34;-1.70;99.90
10678;DHT22;5387;48.722;9.110;2023-02-26T09:51:04;-1.60;99.90
10678;DHT22;5387;48.722;9.110;2023-02-26T09:53:38;-1.50;99.90
10678;DHT22;5387;48.722;9.110;2023-02-26T09:56:10;-1.40;99.90
10678;DHT22;5387;48.722;9.110;2023-02-26T09:58:39;-1.30;99.90
10678;DHT22;5387;48.722;9.110;2023-02-26T10:01:12;-1.20;99.90
10678;DHT22;5387;48.722;9.110;2023-02-26T10:03:52;-1.20;99.90
10678;DHT22;5387;48.722;9.110;2023-02-26T10:06:24;-1.10;99.90
10678;DHT22;5387;48.722;9.110;2023-02-26T10:09:06;-1.00;99.90
10678;DHT22;5387;48.722;9.110;2023-02-26T10:11:42;-0.80;99.90
10678;DHT22;5387;48.722;9.110;2023-02-26T10:14:17;-0.70;99.90
10678;DHT22;5387;48.722;9.110;2023-02-26T10:16:49;-1.00;99.90
10678;DHT22;5387;48.722;9.110;2023-02-26T10:19:19;-1.00;99.90
10678;DHT22;5387;48.722;9.110;2023-02-26T10:21:49;-1.30;99.90
10678;DHT22;5387;48.722;9.110;2023-02-26T10:24:20;-1.40;99.90
10678;DHT22;5387;48.722;9.110;2023-02-26T10:26:50;-1.50;99.90
10678;DHT22;5387;48.722;9.110;2023-02-26T10:29:23;-1.40;99.90
10678;DHT22;5387;48.722;9.110;2023-02-26T10:32:02;-1.30;99.90
10678;DHT22;5387;48.722;9.110;2023-02-26T10:34:35;-1.40;99.90
10678;DHT22;5387;48.722;9.110;2023-02-26T10:37:07;-1.30;99.90
10678;DHT22;5387;48.722;9.110;2023-02-26T10:39:41;-1.30;99.90
10678;DHT22;5387;48.722;9.110;2023-02-26T10:42:12;-1.40;99.90
10678;DHT22;5387;48.722;9.110;2023-02-26T10:44:43;-1.30;99.90
10678;DHT22;5387;48.722;9.110;2023-02-26T10:47:21;-1.00;99.90
10678;DHT22;5387;48.722;9.110;2023-02-26T10:49:53;-1.10;99.90
10678;DHT22;5387;48.722;9.110;2023-02-26T10:52:23;-1.20;99.90
10678;DHT22;5387;48.722;9.110;2023-02-26T10:55:05;-1.30;99.90
10678;DHT22;5387;48.722;9.110;2023-02-26T10:57:35;-1.20;99.90
10678;DHT22;5387;48.722;9.110;2023-02-26T11:00:06;-1.20;99.90
10678;DHT22;5387;48.722;9.110;2023-02-26T11:02:39;-1.20;99.90
10678;DHT22;5387;48.722;9.110;2023-02-26T11:05:15;-1.00;99.90
10678;DHT22;5387;48.722;9.110;2023-02-26T11:07:44;-0.80;99.90
10678;DHT22;5387;48.722;9.110;2023-02-26T11:10:15;-0.30;99.90
10678;DHT22;5387;48.722;9.110;2023-02-26T11:12:42;-0.30;99.90
10678;DHT22;5387;48.722;9.110;2023-02-26T11:15:12;-0.20;99.90
10678;DHT22;5387;48.722;9.110;2023-02-26T11:17:41;-0.20;99.90
10678;DHT22;5387;48.722;9.110;2023-02-26T11:20:16;-0.20;99.90
10678;DHT22;5387;48.722;9.110;2023-02-26T11:22:46;-0.30;99.90
10678;DHT22;5387;48.722;9.110;2023-02-26T11:25:16;-0.40;99.90
10678;DHT22;5387;48.722;9.110;2023-02-26T11:27:43;-0.40;99.90
10678;DHT22;5387;48.722;9.110;2023-02-26T11:30:15;-0.20;99.90
10678;DHT22;5387;48.722;9.110;2023-02-26T11:32:45;-0.30;99.90
10678;DHT22;5387;48.722;9.110;2023-02-26T11:35:17;-0.30;99.90
10678;DHT22;5387;48.722;9.110;2023-02-26T11:37:47;-0.20;99.90
10678;DHT22;5387;48.722;9.110;2023-02-26T11:40:17;-0.30;99.90
10678;DHT22;5387;48.722;9.110;2023-02-26T11:42:49;-0.40;99.90
10678;DHT22;5387;48.722;9.110;2023-02-26T11:45:21;-0.40;99.90
10678;DHT22;5387;48.722;9.110;2023-02-26T11:47:57;-0.40;99.90
10678;DHT22;5387;48.722;9.110;2023-02-26T11:50:28;-0.40;99.90
10678;DHT22;5387;48.722;9.110;2023-02-26T11:52:56;-0.40;99.90
10678;DHT22;5387;48.722;9.110;2023-02-26T11:55:34;-0.40;99.90
10678;DHT22;5387;48.722;9.110;2023-02-26T11:58:13;-0.30;99.90
10678;DHT22;5387;48.722;9.110;2023-02-26T12:00:41;-0.30;99.90
10678;DHT22;5387;48.722;9.110;2023-02-26T12:03:17;-0.30;99.90
10678;DHT22;5387;48.722;9.110;2023-02-26T12:05:45;-0.10;99.90
10678;DHT22;5387;48.722;9.110;2023-02-26T12:08:17;-0.20;99.90
10678;DHT22;5387;48.722;9.110;2023-02-26T12:10:56;-0.10;99.90
10678;DHT22;5387;48.722;9.110;2023-02-26T12:13:32;0.00;99.90
10678;DHT22;5387;48.722;9.110;2023-02-26T12:16:09;-0.10;99.90
10678;DHT22;5387;48.722;9.110;2023-02-26T12:18:54;-0.20;99.90
10678;DHT22;5387;48.722;9.110;2023-02-26T12:21:39;-0.20;99.90
10678;DHT22;5387;48.722;9.110;2023-02-26T12:27:08;-0.40;99.90
10678;DHT22;5387;48.722;9.110;2023-02-26T12:29:54;-0.20;99.90
10678;DHT22;5387;48.722;9.110;2023-02-26T12:32:57;-0.10;99.90
10678;DHT22;5387;48.722;9.110;2023-02-26T12:35:51;0.00;99.90
10678;DHT22;5387;48.722;9.110;2023-02-26T12:38:29;-0.10;99.90
10678;DHT22;5387;48.722;9.110;2023-02-26T12:41:11;-0.20;99.90
10678;DHT22;5387;48.722;9.110;2023-02-26T12:43:45;-0.30;99.90
10678;DHT22;5387;48.722;9.110;2023-02-26T12:46:29;-0.40;99.90
10678;DHT22;5387;48.722;9.110;2023-02-26T12:49:24;-0.50;99.90
10678;DHT22;5387;48.722;9.110;2023-02-26T12:52:06;-0.40;99.90
10678;DHT22;5387;48.722;9.110;2023-02-26T12:54:46;-0.10;99.90
10678;DHT22;5387;48.722;9.110;2023-02-26T12:57:42;-0.10;99.90
10678;DHT22;5387;48.722;9.110;2023-02-26T13:00:37;-0.10;99.90
10678;DHT22;5387;48.722;9.110;2023-02-26T13:03:44;0.00;99.90
10678;DHT22;5387;48.722;9.110;2023-02-26T13:06:39;0.30;99.90
10678;DHT22;5387;48.722;9.110;2023-02-26T13:09:18;0.40;99.90
10678;DHT22;5387;48.722;9.110;2023-02-26T13:12:09;0.10;99.90
10678;DHT22;5387;48.722;9.110;2023-02-26T13:14:47;0.40;99.90
10678;DHT22;5387;48.722;9.110;2023-02-26T13:17:23;0.30;99.90
10678;DHT22;5387;48.722;9.110;2023-02-26T13:19:55;0.30;99.90
10678;DHT22;5387;48.722;9.110;2023-02-26T13:22:26;0.50;99.90
10678;DHT22;5387;48.722;9.110;2023-02-26T13:24:59;0.50;99.90
10678;DHT22;5387;48.722;9.110;2023-02-26T13:27:32;0.30;99.90
10678;DHT22;5387;48.722;9.110;2023-02-26T13:32:41;0.30;99.90
10678;DHT22;5387;48.722;9.110;2023-02-26T13:35:18;0.30;99.90
10678;DHT22;5387;48.722;9.110;2023-02-26T13:37:48;0.40;99.90
10678;DHT22;5387;48.722;9.110;2023-02-26T13:40:42;0.30;99.90
10678;DHT22;5387;48.722;9.110;2023-02-26T13:43:26;0.40;99.90
10678;DHT22;5387;48.722;9.110;2023-02-26T13:46:03;0.40;99.90
10678;DHT22;5387;48.722;9.110;2023-02-26T13:48:41;0.40;99.90
10678;DHT22;5387;48.722;9.110;2023-02-26T13:51:12;0.40;99.90
10678;DHT22;5387;48.722;9.110;2023-02-26T13:53:58;0.50;99.90
10678;DHT22;5387;48.722;9.110;2023-02-26T13:56:51;0.60;99.90
10678;DHT22;5387;48.722;9.110;2023-02-26T13:59:31;0.50;99.90
10678;DHT22;5387;48.722;9.110;2023-02-26T14:02:02;0.70;99.90
10678;DHT22;5387;48.722;9.110;2023-02-26T14:04:31;0.70;99.90
10678;DHT22;5387;48.722;9.110;2023-02-26T14:06:58;0.70;99.90
10678;DHT22;5387;48.722;9.110;2023-02-26T14:09:42;0.70;99.90
10678;DHT22;5387;48.722;9.110;2023-02-26T14:12:32;1.10;99.90
10678;DHT22;5387;48.722;9.110;2023-02-26T14:15:27;1.10;99.90
10678;DHT22;5387;48.722;9.110;2023-02-26T14:18:03;1.30;99.90
10678;DHT22;5387;48.722;9.110;2023-02-26T14:20:32;1.20;99.90
10678;DHT22;5387;48.722;9.110;2023-02-26T14:23:34;1.20;99.90
10678;DHT22;5387;48.722;9.110;2023-02-26T14:26:11;1.00;99.90
10678;DHT22;5387;48.722;9.110;2023-02-26T14:28:56;0.90;99.90
10678;DHT22;5387;48.722;9.110;2023-02-26T14:31:24;0.80;99.90
10678;DHT22;5387;48.722;9.110;2023-02-26T14:34:12;0.60;99.90
10678;DHT22;5387;48.722;9.110;2023-02-26T14:36:43;0.50;99.90
10678;DHT22;5387;48.722;9.110;2023-02-26T14:39:26;0.40;99.90
10678;DHT22;5387;48.722;9.110;2023-02-26T14:41:58;0.50;99.90
10678;DHT22;5387;48.722;9.110;2023-02-26T14:44:28;0.60;99.90
10678;DHT22;5387;48.722;9.110;2023-02-26T14:46:56;0.70;99.90
10678;DHT22;5387;48.722;9.110;2023-02-26T14:49:28;0.70;99.90
10678;DHT22;5387;48.722;9.110;2023-02-26T14:52:11;0.80;99.90
10678;DHT22;5387;48.722;9.110;2023-02-26T14:54:52;0.90;99.90
10678;DHT22;5387;48.722;9.110;2023-02-26T14:57:26;1.00;99.90
10678;DHT22;5387;48.722;9.110;2023-02-26T15:00:06;0.80;99.90
10678;DHT22;5387;48.722;9.110;2023-02-26T15:02:51;0.60;99.90
10678;DHT22;5387;48.722;9.110;2023-02-26T15:05:31;0.70;99.90
10678;DHT22;5387;48.722;9.110;2023-02-26T15:11:31;0.70;99.90
10678;DHT22;5387;48.722;9.110;2023-02-26T15:14:24;0.80;99.90
10678;DHT22;5387;48.722;9.110;2023-02-26T15:17:02;0.90;99.90
10678;DHT22;5387;48.722;9.110;2023-02-26T15:19:41;1.00;99.90
10678;DHT22;5387;48.722;9.110;2023-02-26T15:22:22;1.20;99.90
10678;DHT22;5387;48.722;9.110;2023-02-26T15:24:51;1.30;99.90
10678;DHT22;5387;48.722;9.110;2023-02-26T15:27:19;1.30;99.90
10678;DHT22;5387;48.722;9.110;2023-02-26T15:29:47;1.30;99.90
10678;DHT22;5387;48.722;9.110;2023-02-26T15:32:24;1.10;99.90
10678;DHT22;5387;48.722;9.110;2023-02-26T15:34:56;0.90;99.90
10678;DHT22;5387;48.722;9.110;2023-02-26T15:37:25;0.90;99.90
10678;DHT22;5387;48.722;9.110;2023-02-26T15:39:53;0.80;99.90
10678;DHT22;5387;48.722;9.110;2023-02-26T15:42:24;0.70;99.90
10678;DHT22;5387;48.722;9.110;2023-02-26T15:44:59;0.80;99.90
10678;DHT22;5387;48.722;9.110;2023-02-26T15:47:29;0.70;99.90
10678;DHT22;5387;48.722;9.110;2023-02-26T15:49:56;0.60;99.90
10678;DHT22;5387;48.722;9.110;2023-02-26T15:52:25;0.50;99.90
10678;DHT22;5387;48.722;9.110;2023-02-26T15:54:55;0.50;99.90
10678;DHT22;5387;48.722;9.110;2023-02-26T15:57:23;0.60;99.90
10678;DHT22;5387;48.722;9.110;2023-02-26T15:59:52;0.60;99.90
10678;DHT22;5387;48.722;9.110;2023-02-26T16:02:21;0.60;99.90
10678;DHT22;5387;48.722;9.110;2023-02-26T16:04:51;0.60;99.90
10678;DHT22;5387;48.722;9.110;2023-02-26T16:07:19;0.60;99.90
10678;DHT22;5387;48.722;9.110;2023-02-26T16:09:47;0.50;99.90
10678;DHT22;5387;48.722;9.110;2023-02-26T16:12:18;0.50;99.90
10678;DHT22;5387;48.722;9.110;2023-02-26T16:14:47;0.50;99.90
10678;DHT22;5387;48.722;9.110;2023-02-26T16:17:21;0.60;99.90
10678;DHT22;5387;48.722;9.110;2023-02-26T16:19:51;0.70;99.90
10678;DHT22;5387;48.722;9.110;2023-02-26T16:22:21;0.60;99.90
10678;DHT22;5387;48.722;9.110;2023-02-26T16:24:52;0.50;99.90
10678;DHT22;5387;48.722;9.110;2023-02-26T16:27:24;0.40;99.90
10678;DHT22;5387;48.722;9.110;2023-02-26T16:29:55;0.30;99.90
10678;DHT22;5387;48.722;9.110;2023-02-26T16:32:29;0.30;99.90